Doris Moran — WRU2125 — position and weather

sailwx.info

Track history (hours):
 
Tides and Currents Weather Stations Pressure Air Temp Water Temp Dewpoint Dewpoint Depression Visibility Wind Speed Wind Dir Waves Ship Positions

Doris Moran

Owner: MORAN TOWING CORPORATION, New Canaan, CT. More information available from US FCC via Universal Licensing System and Coast Guard Vessel Documentation Center.

Last reported at 2017-Jan-17 18:34 UTC. Time now 2017-Jan-17 19:23 UTC.
Position N 40°38' W 074°08'.

Length 36 m; draft 5.3 m.

Type: Tug. MMSI: 366939790.

Date/timePositionNaut miles runAvg speedWind from/ knotsBaromVisibWave heightAir tempDewpointWater temp
2017-Jan-17 18:34N 40°38' W 074°08'6 6.4
2017-Jan-17 17:34N 40°41' W 074°00'7 6.6
2017-Jan-17 16:33N 40°39' W 074°08'3 3.3
2017-Jan-17 15:34N 40°42' W 074°09'3 3.4
2017-Jan-17 14:32N 40°38' W 074°08'0 0.0
2017-Jan-17 13:32N 40°38' W 074°08'0 0.0
2017-Jan-17 12:32N 40°38' W 074°08'0 0.0
2017-Jan-17 11:32N 40°38' W 074°08'0 0.0
2017-Jan-17 10:32N 40°38' W 074°08'0 0.0
2017-Jan-17 09:32N 40°38' W 074°08'0 0.0
2017-Jan-17 08:29N 40°38' W 074°08'0 0.0
2017-Jan-17 07:32N 40°38' W 074°08'0 0.0
2017-Jan-17 06:32N 40°38' W 074°08'0 0.0
2017-Jan-17 05:29N 40°38' W 074°08'0 0.0
2017-Jan-17 04:32N 40°38' W 074°08'0 0.0
2017-Jan-17 03:32N 40°38' W 074°08'0 0.0
2017-Jan-17 02:32N 40°38' W 074°08'0 0.0
2017-Jan-17 01:32N 40°38' W 074°08'0 0.0
2017-Jan-17 00:31N 40°38' W 074°08'3 3.0
2017-Jan-16 23:33N 40°39' W 074°04'1 0.9
2017-Jan-16 22:33N 40°39' W 074°03'0 0.0
2017-Jan-16 21:33N 40°39' W 074°03'0 0.0
2017-Jan-16 20:33N 40°39' W 074°03'0 0.0
2017-Jan-16 19:33N 40°39' W 074°03'0 0.1
2017-Jan-16 18:33N 40°39' W 074°03'0 0.2
2017-Jan-16 17:33N 40°39' W 074°03'0 0.0
2017-Jan-16 16:33N 40°39' W 074°03'0 0.0
2017-Jan-16 15:33N 40°39' W 074°03'0 0.0
2017-Jan-16 14:33N 40°39' W 074°03'0 0.1
2017-Jan-16 13:33N 40°39' W 074°03'0 0.0
2017-Jan-16 12:32N 40°39' W 074°03'0 0.0
2017-Jan-16 11:32N 40°39' W 074°03'0 0.0
2017-Jan-16 10:33N 40°39' W 074°03'4 3.6
2017-Jan-16 09:32N 40°38' W 074°08'0 0.0
2017-Jan-16 08:28N 40°38' W 074°08'0 0.0
2017-Jan-16 07:32N 40°38' W 074°08'0 0.0
2017-Jan-16 06:32N 40°38' W 074°08'0 0.0
2017-Jan-16 05:31N 40°38' W 074°08'0 0.0
2017-Jan-16 04:32N 40°38' W 074°08'0 0.0
2017-Jan-16 03:31N 40°38' W 074°08'0 0.0
2017-Jan-16 02:31N 40°38' W 074°08'0 0.0
2017-Jan-16 01:31N 40°38' W 074°08'0 0.0
2017-Jan-16 00:31N 40°38' W 074°08'0 0.0
2017-Jan-15 23:31N 40°38' W 074°08'0 0.0
2017-Jan-15 22:28N 40°38' W 074°08'0 0.0
2017-Jan-15 21:28N 40°38' W 074°08'0 0.0
2017-Jan-15 20:31N 40°38' W 074°08'0 0.0
2017-Jan-15 19:31N 40°38' W 074°08'0 0.0
2017-Jan-15 18:33N 40°38' W 074°08'0 0.0
2017-Jan-15 17:33N 40°38' W 074°08'0 0.0
2017-Jan-15 16:33N 40°38' W 074°08'2 2.0
2017-Jan-15 15:33N 40°39' W 074°05'1 1.3
2017-Jan-15 14:33N 40°39' W 074°04'3 3.2
2017-Jan-15 13:33N 40°38' W 074°08'0 0.0
2017-Jan-15 12:33N 40°38' W 074°08'0 0.0
2017-Jan-15 11:33N 40°38' W 074°08'0 0.0
2017-Jan-15 10:33N 40°38' W 074°08'0 0.0
2017-Jan-15 09:33N 40°38' W 074°08'0 0.0
2017-Jan-15 08:33N 40°38' W 074°08'0 0.0
2017-Jan-15 07:33N 40°38' W 074°08'0 0.0
2017-Jan-15 06:33N 40°38' W 074°08'0 0.0
2017-Jan-15 05:32N 40°38' W 074°08'0 0.0
2017-Jan-15 04:33N 40°38' W 074°08'0 0.0
2017-Jan-15 03:33N 40°38' W 074°08'0 0.0
2017-Jan-15 02:33N 40°38' W 074°08'0 0.0
2017-Jan-15 01:33N 40°38' W 074°08'4 4.1
2017-Jan-15 00:33N 40°36' W 074°12'1 1.5
2017-Jan-14 23:33N 40°37' W 074°12'4 3.5
2017-Jan-14 22:32N 40°38' W 074°08'0 0.0
2017-Jan-14 21:32N 40°39' W 074°08'0 0.0
2017-Jan-14 20:32N 40°38' W 074°08'0 0.0
2017-Jan-14 19:32N 40°39' W 074°08'0 0.0
2017-Jan-14 18:32N 40°39' W 074°08'0 0.0
2017-Jan-14 17:32N 40°39' W 074°08'0 0.0
2017-Jan-14 16:32N 40°39' W 074°08'0 0.0
2017-Jan-14 15:32N 40°39' W 074°08'1 1.0
2017-Jan-14 14:33N 40°39' W 074°09'1 1.0
2017-Jan-14 13:33N 40°38' W 074°08'0 0.0
2017-Jan-14 12:33N 40°38' W 074°08'0 0.0
2017-Jan-14 11:33N 40°38' W 074°08'0 0.0
2017-Jan-14 10:34N 40°38' W 074°08'0 0.0
2017-Jan-14 09:33N 40°38' W 074°08'3 3.0
2017-Jan-14 08:33N 40°38' W 074°12'2 2.1
2017-Jan-14 07:32N 40°36' W 074°12'1 0.8
2017-Jan-14 06:33N 40°35' W 074°12'4 3.3
2017-Jan-14 05:27N 40°32' W 074°15'1 1.0
2017-Jan-14 04:31N 40°33' W 074°15'2 2.4
2017-Jan-14 03:33N 40°35' W 074°13'5 1.2
2017-Jan-13 23:31N 40°38' W 074°08'0 0.4
2017-Jan-13 22:33N 40°39' W 074°08'1 0.6
2017-Jan-13 21:33N 40°39' W 074°09'6 6.5
2017-Jan-13 20:33N 40°41' W 074°01'6 5.7
2017-Jan-13 19:33N 40°38' W 074°08'0 0.0
2017-Jan-13 18:33N 40°38' W 074°08'0 0.0
2017-Jan-13 17:33N 40°38' W 074°08'0 0.0
2017-Jan-13 16:33N 40°38' W 074°08'0 0.0
2017-Jan-13 15:30N 40°38' W 074°08'0 0.0
2017-Jan-13 14:33N 40°38' W 074°08'0 0.0
2017-Jan-13 13:34N 40°38' W 074°08'0 0.0
2017-Jan-13 12:34N 40°38' W 074°08'0 0.0
2017-Jan-13 11:34N 40°38' W 074°08'0 0.0
2017-Jan-13 10:33N 40°38' W 074°08'0 0.0
2017-Jan-13 09:34N 40°38' W 074°08'0 0.0
2017-Jan-13 08:33N 40°38' W 074°08'0 0.0
2017-Jan-13 07:34N 40°38' W 074°08'0 0.0
2017-Jan-13 06:34N 40°38' W 074°08'0 0.0
2017-Jan-13 05:34N 40°38' W 074°08'0 0.0
2017-Jan-13 04:34N 40°38' W 074°08'0 0.0
2017-Jan-13 03:33N 40°38' W 074°08'0 0.0
2017-Jan-13 02:33N 40°38' W 074°08'0 0.0
2017-Jan-13 01:33N 40°38' W 074°08'0 0.0
2017-Jan-13 00:34N 40°38' W 074°08'0 0.0
2017-Jan-12 23:33N 40°38' W 074°08'0 0.0
2017-Jan-12 22:33N 40°38' W 074°08'0 0.0
2017-Jan-12 21:33N 40°38' W 074°08'0 0.0
2017-Jan-12 20:33N 40°38' W 074°08'0 0.0
2017-Jan-12 19:33N 40°38' W 074°08'0 0.0
2017-Jan-12 18:34N 40°38' W 074°08'0 0.0
2017-Jan-12 17:33N 40°38' W 074°08'2 2.4
2017-Jan-12 16:34N 40°41' W 074°09'0 0.1
2017-Jan-12 15:33N 40°41' W 074°09'2 2.2
2017-Jan-12 14:33N 40°39' W 074°09'1 1.3
2017-Jan-12 13:34N 40°39' W 074°10'1 1.3
2017-Jan-12 12:33N 40°38' W 074°12'5 5.2
2017-Jan-12 11:33N 40°39' W 074°05'2 2.1
2017-Jan-12 10:33N 40°38' W 074°08'0 0.0
2017-Jan-12 09:33N 40°38' W 074°08'0 0.0
2017-Jan-12 08:33N 40°38' W 074°08'0 0.0
2017-Jan-12 07:33N 40°38' W 074°08'0 0.0
2017-Jan-12 06:33N 40°38' W 074°08'3 3.4
2017-Jan-12 05:33N 40°42' W 074°09'4 3.8
2017-Jan-12 04:33N 40°39' W 074°06'5 4.8
2017-Jan-12 03:33N 40°41' W 074°00'4 3.5
2017-Jan-12 02:33N 40°40' W 074°05'3 3.2
2017-Jan-12 01:33N 40°37' W 074°03'4 3.6
2017-Jan-12 00:33N 40°38' W 074°08'0 0.0
2017-Jan-11 23:33N 40°38' W 074°08'0 0.0
2017-Jan-11 22:33N 40°38' W 074°08'1 0.8
2017-Jan-11 21:33N 40°39' W 074°09'1 1.1
2017-Jan-11 20:33N 40°40' W 074°09'1 1.5
2017-Jan-11 19:32N 40°38' W 074°08'0 0.0
2017-Jan-11 18:29N 40°38' W 074°08'3 2.8
2017-Jan-11 17:33N 40°39' W 074°04'3 2.6
2017-Jan-11 16:32N 40°38' W 074°08'0 0.0
2017-Jan-11 15:32N 40°38' W 074°08'0 0.0
2017-Jan-11 14:29N 40°38' W 074°08'0 0.0
2017-Jan-11 13:23N 40°38' W 074°08'0 0.0
2017-Jan-11 12:32N 40°38' W 074°08'0 0.0
2017-Jan-11 11:32N 40°38' W 074°08'0 0.0
2017-Jan-11 10:32N 40°38' W 074°08'0 0.0
2017-Jan-11 09:32N 40°38' W 074°08'0 0.0
2017-Jan-11 08:32N 40°38' W 074°08'0 0.0
2017-Jan-11 07:32N 40°38' W 074°08'0 0.0
2017-Jan-11 06:32N 40°38' W 074°08'0 0.0
2017-Jan-11 05:32N 40°38' W 074°08'0 0.0
2017-Jan-11 04:32N 40°38' W 074°08'0 0.0
2017-Jan-11 03:32N 40°38' W 074°08'0 0.0
2017-Jan-11 02:32N 40°38' W 074°08'0 0.0
2017-Jan-11 01:33N 40°38' W 074°08'0 0.0
2017-Jan-11 00:34N 40°38' W 074°08'1 1.5
2017-Jan-10 23:33N 40°39' W 074°06'3 3.2
2017-Jan-10 22:34N 40°41' W 074°02'4 4.2
2017-Jan-10 21:34N 40°41' W 074°08'1 1.4
2017-Jan-10 20:33N 40°42' W 074°09'5 5.3
2017-Jan-10 19:33N 40°37' W 074°12'5 3.8
2017-Jan-10 18:17N 40°33' W 074°15'3 3.9
2017-Jan-10 17:33N 40°35' W 074°13'5 5.1
2017-Jan-10 16:33N 40°38' W 074°08'0 0.0
2017-Jan-10 15:34N 40°38' W 074°08'0 0.0
2017-Jan-10 14:34N 40°38' W 074°08'0 0.0
2017-Jan-10 13:33N 40°38' W 074°08'0 0.0
2017-Jan-10 12:33N 40°38' W 074°08'0 0.0
2017-Jan-10 11:34N 40°38' W 074°08'0 0.0
2017-Jan-10 10:34N 40°38' W 074°08'0 0.0
2017-Jan-10 09:34N 40°38' W 074°08'0 0.0
2017-Jan-10 08:34N 40°38' W 074°08'0 0.0
2017-Jan-10 07:34N 40°38' W 074°08'0 0.0
2017-Jan-10 06:34N 40°38' W 074°08'0 0.0
2017-Jan-10 05:34N 40°38' W 074°08'0 0.0
2017-Jan-10 04:34N 40°38' W 074°08'0 0.0
2017-Jan-10 03:34N 40°38' W 074°08'0 0.0
2017-Jan-10 02:34N 40°38' W 074°08'0 0.0
2017-Jan-10 01:33N 40°38' W 074°08'0 0.0
2017-Jan-10 00:33N 40°38' W 074°08'0 0.0
2017-Jan-09 23:34N 40°38' W 074°08'3 3.3
2017-Jan-09 22:33N 40°38' W 074°12'4 4.0
2017-Jan-09 21:33N 40°39' W 074°07'0 0.3
2017-Jan-09 20:33N 40°39' W 074°07'1 1.0
2017-Jan-09 19:34N 40°38' W 074°08'0 0.0
2017-Jan-09 18:33N 40°38' W 074°08'0 0.0
2017-Jan-09 17:33N 40°38' W 074°08'0 0.0
2017-Jan-09 16:33N 40°38' W 074°08'0 0.0
2017-Jan-09 15:34N 40°38' W 074°08'1 1.2
2017-Jan-09 14:33N 40°39' W 074°06'6 5.8
2017-Jan-09 13:31N 40°34' W 074°02'5 2.4
2017-Jan-09 11:21N 40°30' W 073°57'810.5
2017-Jan-09 10:33N 40°37' W 074°03'4 3.9
2017-Jan-09 09:31N 40°38' W 074°08'0 0.0
2017-Jan-09 08:33N 40°38' W 074°08'0 0.0
2017-Jan-09 07:33N 40°38' W 074°08'0 0.0
2017-Jan-09 06:33N 40°38' W 074°08'0 0.0
2017-Jan-09 05:33N 40°38' W 074°08'0 0.0
2017-Jan-09 04:33N 40°38' W 074°08'0 0.0
2017-Jan-09 03:33N 40°38' W 074°08'0 0.0
2017-Jan-09 02:33N 40°38' W 074°08'0 0.0
2017-Jan-09 01:33N 40°38' W 074°08'0 0.0
2017-Jan-09 00:33N 40°38' W 074°08'0 0.0
2017-Jan-08 23:33N 40°38' W 074°08'0 0.0
2017-Jan-08 22:33N 40°38' W 074°08'0 0.0
2017-Jan-08 21:33N 40°38' W 074°08'2 1.9
2017-Jan-08 20:33N 40°40' W 074°08'1 0.9
2017-Jan-08 19:33N 40°41' W 074°09'0 0.1
2017-Jan-08 18:33N 40°41' W 074°09'0 0.0
2017-Jan-08 17:33N 40°41' W 074°09'0 0.1
2017-Jan-08 16:33N 40°41' W 074°09'3 2.7
2017-Jan-08 15:33N 40°38' W 074°08'0 0.0
2017-Jan-08 14:33N 40°38' W 074°08'0 0.0
2017-Jan-08 13:33N 40°38' W 074°08'0 0.0
2017-Jan-08 12:33N 40°38' W 074°08'0 0.0
2017-Jan-08 11:33N 40°38' W 074°08'0 0.0
2017-Jan-08 10:33N 40°38' W 074°08'0 0.0
2017-Jan-08 09:33N 40°38' W 074°08'0 0.0
2017-Jan-08 08:33N 40°38' W 074°08'0 0.0
2017-Jan-08 07:33N 40°38' W 074°08'0 0.0
2017-Jan-08 06:33N 40°38' W 074°08'0 0.0
2017-Jan-08 05:33N 40°38' W 074°08'0 0.0
2017-Jan-08 04:33N 40°38' W 074°08'0 0.0
2017-Jan-08 03:33N 40°38' W 074°08'1 0.6
2017-Jan-08 02:33N 40°39' W 074°09'2 2.1
2017-Jan-08 01:33N 40°41' W 074°09'2 2.3
2017-Jan-08 00:33N 40°38' W 074°08'0 0.0
2017-Jan-07 23:33N 40°38' W 074°08'0 0.0
2017-Jan-07 22:33N 40°38' W 074°08'0 0.0
2017-Jan-07 21:33N 40°38' W 074°08'0 0.0
2017-Jan-07 20:33N 40°38' W 074°08'0 0.0
2017-Jan-07 19:33N 40°38' W 074°08'  
Track history (hours):
 
Tides and Currents Weather Stations Pressure Air Temp Water Temp Dewpoint Dewpoint Depression Visibility Wind Speed Wind Dir Waves Ship Positions

Doris Moran

Owner: MORAN TOWING CORPORATION, New Canaan, CT. More information available from US FCC via Universal Licensing System and Coast Guard Vessel Documentation Center.

Last reported at 2017-Jan-17 18:34 UTC. Time now 2017-Jan-17 19:23 UTC.
Position N 40°38' W 074°08'.

Length 36 m; draft 5.3 m.

Type: Tug. MMSI: 366939790.

Date/timePositionNaut miles runAvg speedWind from/ knotsBaromVisibWave heightAir tempDewpointWater temp
2017-Jan-17 18:34N 40°38' W 074°08'6 6.4
2017-Jan-17 17:34N 40°41' W 074°00'7 6.6
2017-Jan-17 16:33N 40°39' W 074°08'3 3.3
2017-Jan-17 15:34N 40°42' W 074°09'3 3.4
2017-Jan-17 14:32N 40°38' W 074°08'0 0.0
2017-Jan-17 13:32N 40°38' W 074°08'0 0.0
2017-Jan-17 12:32N 40°38' W 074°08'0 0.0
2017-Jan-17 11:32N 40°38' W 074°08'0 0.0
2017-Jan-17 10:32N 40°38' W 074°08'0 0.0
2017-Jan-17 09:32N 40°38' W 074°08'0 0.0
2017-Jan-17 08:29N 40°38' W 074°08'0 0.0
2017-Jan-17 07:32N 40°38' W 074°08'0 0.0
2017-Jan-17 06:32N 40°38' W 074°08'0 0.0
2017-Jan-17 05:29N 40°38' W 074°08'0 0.0
2017-Jan-17 04:32N 40°38' W 074°08'0 0.0
2017-Jan-17 03:32N 40°38' W 074°08'0 0.0
2017-Jan-17 02:32N 40°38' W 074°08'0 0.0
2017-Jan-17 01:32N 40°38' W 074°08'0 0.0
2017-Jan-17 00:31N 40°38' W 074°08'3 3.0
2017-Jan-16 23:33N 40°39' W 074°04'1 0.9
2017-Jan-16 22:33N 40°39' W 074°03'0 0.0
2017-Jan-16 21:33N 40°39' W 074°03'0 0.0
2017-Jan-16 20:33N 40°39' W 074°03'0 0.0
2017-Jan-16 19:33N 40°39' W 074°03'0 0.1
2017-Jan-16 18:33N 40°39' W 074°03'0 0.2
2017-Jan-16 17:33N 40°39' W 074°03'0 0.0
2017-Jan-16 16:33N 40°39' W 074°03'0 0.0
2017-Jan-16 15:33N 40°39' W 074°03'0 0.0
2017-Jan-16 14:33N 40°39' W 074°03'0 0.1
2017-Jan-16 13:33N 40°39' W 074°03'0 0.0
2017-Jan-16 12:32N 40°39' W 074°03'0 0.0
2017-Jan-16 11:32N 40°39' W 074°03'0 0.0
2017-Jan-16 10:33N 40°39' W 074°03'4 3.6
2017-Jan-16 09:32N 40°38' W 074°08'0 0.0
2017-Jan-16 08:28N 40°38' W 074°08'0 0.0
2017-Jan-16 07:32N 40°38' W 074°08'0 0.0
2017-Jan-16 06:32N 40°38' W 074°08'0 0.0
2017-Jan-16 05:31N 40°38' W 074°08'0 0.0
2017-Jan-16 04:32N 40°38' W 074°08'0 0.0
2017-Jan-16 03:31N 40°38' W 074°08'0 0.0
2017-Jan-16 02:31N 40°38' W 074°08'0 0.0
2017-Jan-16 01:31N 40°38' W 074°08'0 0.0
2017-Jan-16 00:31N 40°38' W 074°08'0 0.0
2017-Jan-15 23:31N 40°38' W 074°08'0 0.0
2017-Jan-15 22:28N 40°38' W 074°08'0 0.0
2017-Jan-15 21:28N 40°38' W 074°08'0 0.0
2017-Jan-15 20:31N 40°38' W 074°08'0 0.0
2017-Jan-15 19:31N 40°38' W 074°08'0 0.0
2017-Jan-15 18:33N 40°38' W 074°08'0 0.0
2017-Jan-15 17:33N 40°38' W 074°08'0 0.0
2017-Jan-15 16:33N 40°38' W 074°08'2 2.0
2017-Jan-15 15:33N 40°39' W 074°05'1 1.3
2017-Jan-15 14:33N 40°39' W 074°04'3 3.2
2017-Jan-15 13:33N 40°38' W 074°08'0 0.0
2017-Jan-15 12:33N 40°38' W 074°08'0 0.0
2017-Jan-15 11:33N 40°38' W 074°08'0 0.0
2017-Jan-15 10:33N 40°38' W 074°08'0 0.0
2017-Jan-15 09:33N 40°38' W 074°08'0 0.0
2017-Jan-15 08:33N 40°38' W 074°08'0 0.0
2017-Jan-15 07:33N 40°38' W 074°08'0 0.0
2017-Jan-15 06:33N 40°38' W 074°08'0 0.0
2017-Jan-15 05:32N 40°38' W 074°08'0 0.0
2017-Jan-15 04:33N 40°38' W 074°08'0 0.0
2017-Jan-15 03:33N 40°38' W 074°08'0 0.0
2017-Jan-15 02:33N 40°38' W 074°08'0 0.0
2017-Jan-15 01:33N 40°38' W 074°08'4 4.1
2017-Jan-15 00:33N 40°36' W 074°12'1 1.5
2017-Jan-14 23:33N 40°37' W 074°12'4 3.5
2017-Jan-14 22:32N 40°38' W 074°08'0 0.0
2017-Jan-14 21:32N 40°39' W 074°08'0 0.0
2017-Jan-14 20:32N 40°38' W 074°08'0 0.0
2017-Jan-14 19:32N 40°39' W 074°08'0 0.0
2017-Jan-14 18:32N 40°39' W 074°08'0 0.0
2017-Jan-14 17:32N 40°39' W 074°08'0 0.0
2017-Jan-14 16:32N 40°39' W 074°08'0 0.0
2017-Jan-14 15:32N 40°39' W 074°08'1 1.0
2017-Jan-14 14:33N 40°39' W 074°09'1 1.0
2017-Jan-14 13:33N 40°38' W 074°08'0 0.0
2017-Jan-14 12:33N 40°38' W 074°08'0 0.0
2017-Jan-14 11:33N 40°38' W 074°08'0 0.0
2017-Jan-14 10:34N 40°38' W 074°08'0 0.0
2017-Jan-14 09:33N 40°38' W 074°08'3 3.0
2017-Jan-14 08:33N 40°38' W 074°12'2 2.1
2017-Jan-14 07:32N 40°36' W 074°12'1 0.8
2017-Jan-14 06:33N 40°35' W 074°12'4 3.3
2017-Jan-14 05:27N 40°32' W 074°15'1 1.0
2017-Jan-14 04:31N 40°33' W 074°15'2 2.4
2017-Jan-14 03:33N 40°35' W 074°13'5 1.2
2017-Jan-13 23:31N 40°38' W 074°08'0 0.4
2017-Jan-13 22:33N 40°39' W 074°08'1 0.6
2017-Jan-13 21:33N 40°39' W 074°09'6 6.5
2017-Jan-13 20:33N 40°41' W 074°01'6 5.7
2017-Jan-13 19:33N 40°38' W 074°08'0 0.0
2017-Jan-13 18:33N 40°38' W 074°08'0 0.0
2017-Jan-13 17:33N 40°38' W 074°08'0 0.0
2017-Jan-13 16:33N 40°38' W 074°08'0 0.0
2017-Jan-13 15:30N 40°38' W 074°08'0 0.0
2017-Jan-13 14:33N 40°38' W 074°08'0 0.0
2017-Jan-13 13:34N 40°38' W 074°08'0 0.0
2017-Jan-13 12:34N 40°38' W 074°08'0 0.0
2017-Jan-13 11:34N 40°38' W 074°08'0 0.0
2017-Jan-13 10:33N 40°38' W 074°08'0 0.0
2017-Jan-13 09:34N 40°38' W 074°08'0 0.0
2017-Jan-13 08:33N 40°38' W 074°08'0 0.0
2017-Jan-13 07:34N 40°38' W 074°08'0 0.0
2017-Jan-13 06:34N 40°38' W 074°08'0 0.0
2017-Jan-13 05:34N 40°38' W 074°08'0 0.0
2017-Jan-13 04:34N 40°38' W 074°08'0 0.0
2017-Jan-13 03:33N 40°38' W 074°08'0 0.0
2017-Jan-13 02:33N 40°38' W 074°08'0 0.0
2017-Jan-13 01:33N 40°38' W 074°08'0 0.0
2017-Jan-13 00:34N 40°38' W 074°08'0 0.0
2017-Jan-12 23:33N 40°38' W 074°08'0 0.0
2017-Jan-12 22:33N 40°38' W 074°08'0 0.0
2017-Jan-12 21:33N 40°38' W 074°08'0 0.0
2017-Jan-12 20:33N 40°38' W 074°08'0 0.0
2017-Jan-12 19:33N 40°38' W 074°08'0 0.0
2017-Jan-12 18:34N 40°38' W 074°08'0 0.0
2017-Jan-12 17:33N 40°38' W 074°08'2 2.4
2017-Jan-12 16:34N 40°41' W 074°09'0 0.1
2017-Jan-12 15:33N 40°41' W 074°09'2 2.2
2017-Jan-12 14:33N 40°39' W 074°09'1 1.3
2017-Jan-12 13:34N 40°39' W 074°10'1 1.3
2017-Jan-12 12:33N 40°38' W 074°12'5 5.2
2017-Jan-12 11:33N 40°39' W 074°05'2 2.1
2017-Jan-12 10:33N 40°38' W 074°08'0 0.0
2017-Jan-12 09:33N 40°38' W 074°08'0 0.0
2017-Jan-12 08:33N 40°38' W 074°08'0 0.0
2017-Jan-12 07:33N 40°38' W 074°08'0 0.0
2017-Jan-12 06:33N 40°38' W 074°08'3 3.4
2017-Jan-12 05:33N 40°42' W 074°09'4 3.8
2017-Jan-12 04:33N 40°39' W 074°06'5 4.8
2017-Jan-12 03:33N 40°41' W 074°00'4 3.5
2017-Jan-12 02:33N 40°40' W 074°05'3 3.2
2017-Jan-12 01:33N 40°37' W 074°03'4 3.6
2017-Jan-12 00:33N 40°38' W 074°08'0 0.0
2017-Jan-11 23:33N 40°38' W 074°08'0 0.0
2017-Jan-11 22:33N 40°38' W 074°08'1 0.8
2017-Jan-11 21:33N 40°39' W 074°09'1 1.1
2017-Jan-11 20:33N 40°40' W 074°09'1 1.5
2017-Jan-11 19:32N 40°38' W 074°08'0 0.0
2017-Jan-11 18:29N 40°38' W 074°08'3 2.8
2017-Jan-11 17:33N 40°39' W 074°04'3 2.6
2017-Jan-11 16:32N 40°38' W 074°08'0 0.0
2017-Jan-11 15:32N 40°38' W 074°08'0 0.0
2017-Jan-11 14:29N 40°38' W 074°08'0 0.0
2017-Jan-11 13:23N 40°38' W 074°08'0 0.0
2017-Jan-11 12:32N 40°38' W 074°08'0 0.0
2017-Jan-11 11:32N 40°38' W 074°08'0 0.0
2017-Jan-11 10:32N 40°38' W 074°08'0 0.0
2017-Jan-11 09:32N 40°38' W 074°08'0 0.0
2017-Jan-11 08:32N 40°38' W 074°08'0 0.0
2017-Jan-11 07:32N 40°38' W 074°08'0 0.0
2017-Jan-11 06:32N 40°38' W 074°08'0 0.0
2017-Jan-11 05:32N 40°38' W 074°08'0 0.0
2017-Jan-11 04:32N 40°38' W 074°08'0 0.0
2017-Jan-11 03:32N 40°38' W 074°08'0 0.0
2017-Jan-11 02:32N 40°38' W 074°08'0 0.0
2017-Jan-11 01:33N 40°38' W 074°08'0 0.0
2017-Jan-11 00:34N 40°38' W 074°08'1 1.5
2017-Jan-10 23:33N 40°39' W 074°06'3 3.2
2017-Jan-10 22:34N 40°41' W 074°02'4 4.2
2017-Jan-10 21:34N 40°41' W 074°08'1 1.4
2017-Jan-10 20:33N 40°42' W 074°09'5 5.3
2017-Jan-10 19:33N 40°37' W 074°12'5 3.8
2017-Jan-10 18:17N 40°33' W 074°15'3 3.9
2017-Jan-10 17:33N 40°35' W 074°13'5 5.1
2017-Jan-10 16:33N 40°38' W 074°08'0 0.0
2017-Jan-10 15:34N 40°38' W 074°08'0 0.0
2017-Jan-10 14:34N 40°38' W 074°08'0 0.0
2017-Jan-10 13:33N 40°38' W 074°08'0 0.0
2017-Jan-10 12:33N 40°38' W 074°08'0 0.0
2017-Jan-10 11:34N 40°38' W 074°08'0 0.0
2017-Jan-10 10:34N 40°38' W 074°08'0 0.0
2017-Jan-10 09:34N 40°38' W 074°08'0 0.0
2017-Jan-10 08:34N 40°38' W 074°08'0 0.0
2017-Jan-10 07:34N 40°38' W 074°08'0 0.0
2017-Jan-10 06:34N 40°38' W 074°08'0 0.0
2017-Jan-10 05:34N 40°38' W 074°08'0 0.0
2017-Jan-10 04:34N 40°38' W 074°08'0 0.0
2017-Jan-10 03:34N 40°38' W 074°08'0 0.0
2017-Jan-10 02:34N 40°38' W 074°08'0 0.0
2017-Jan-10 01:33N 40°38' W 074°08'0 0.0
2017-Jan-10 00:33N 40°38' W 074°08'0 0.0
2017-Jan-09 23:34N 40°38' W 074°08'3 3.3
2017-Jan-09 22:33N 40°38' W 074°12'4 4.0
2017-Jan-09 21:33N 40°39' W 074°07'0 0.3
2017-Jan-09 20:33N 40°39' W 074°07'1 1.0
2017-Jan-09 19:34N 40°38' W 074°08'0 0.0
2017-Jan-09 18:33N 40°38' W 074°08'0 0.0
2017-Jan-09 17:33N 40°38' W 074°08'0 0.0
2017-Jan-09 16:33N 40°38' W 074°08'0 0.0
2017-Jan-09 15:34N 40°38' W 074°08'1 1.2
2017-Jan-09 14:33N 40°39' W 074°06'6 5.8
2017-Jan-09 13:31N 40°34' W 074°02'5 2.4
2017-Jan-09 11:21N 40°30' W 073°57'810.5
2017-Jan-09 10:33N 40°37' W 074°03'4 3.9
2017-Jan-09 09:31N 40°38' W 074°08'0 0.0
2017-Jan-09 08:33N 40°38' W 074°08'0 0.0
2017-Jan-09 07:33N 40°38' W 074°08'0 0.0
2017-Jan-09 06:33N 40°38' W 074°08'0 0.0
2017-Jan-09 05:33N 40°38' W 074°08'0 0.0
2017-Jan-09 04:33N 40°38' W 074°08'0 0.0
2017-Jan-09 03:33N 40°38' W 074°08'0 0.0
2017-Jan-09 02:33N 40°38' W 074°08'0 0.0
2017-Jan-09 01:33N 40°38' W 074°08'0 0.0
2017-Jan-09 00:33N 40°38' W 074°08'0 0.0
2017-Jan-08 23:33N 40°38' W 074°08'0 0.0
2017-Jan-08 22:33N 40°38' W 074°08'0 0.0
2017-Jan-08 21:33N 40°38' W 074°08'2 1.9
2017-Jan-08 20:33N 40°40' W 074°08'1 0.9
2017-Jan-08 19:33N 40°41' W 074°09'0 0.1
2017-Jan-08 18:33N 40°41' W 074°09'0 0.0
2017-Jan-08 17:33N 40°41' W 074°09'0 0.1
2017-Jan-08 16:33N 40°41' W 074°09'3 2.7
2017-Jan-08 15:33N 40°38' W 074°08'0 0.0
2017-Jan-08 14:33N 40°38' W 074°08'0 0.0
2017-Jan-08 13:33N 40°38' W 074°08'0 0.0
2017-Jan-08 12:33N 40°38' W 074°08'0 0.0
2017-Jan-08 11:33N 40°38' W 074°08'0 0.0
2017-Jan-08 10:33N 40°38' W 074°08'0 0.0
2017-Jan-08 09:33N 40°38' W 074°08'0 0.0
2017-Jan-08 08:33N 40°38' W 074°08'0 0.0
2017-Jan-08 07:33N 40°38' W 074°08'0 0.0
2017-Jan-08 06:33N 40°38' W 074°08'0 0.0
2017-Jan-08 05:33N 40°38' W 074°08'0 0.0
2017-Jan-08 04:33N 40°38' W 074°08'0 0.0
2017-Jan-08 03:33N 40°38' W 074°08'1 0.6
2017-Jan-08 02:33N 40°39' W 074°09'2 2.1
2017-Jan-08 01:33N 40°41' W 074°09'2 2.3
2017-Jan-08 00:33N 40°38' W 074°08'0 0.0
2017-Jan-07 23:33N 40°38' W 074°08'0 0.0
2017-Jan-07 22:33N 40°38' W 074°08'0 0.0
2017-Jan-07 21:33N 40°38' W 074°08'0 0.0
2017-Jan-07 20:33N 40°38' W 074°08'0 0.0
2017-Jan-07 19:33N 40°38' W 074°08'  

Dump ship's entire track history